sensor_id;sensor_type;location;lat;lon;timestamp;temperature;humidity
48043;DHT22;33988;47.992;8.820;2023-05-27T00:01:47;21.40;47.70
48043;DHT22;33988;47.992;8.820;2023-05-27T00:04:14;21.40;47.70
48043;DHT22;33988;47.992;8.820;2023-05-27T00:06:41;21.40;47.70
48043;DHT22;33988;47.992;8.820;2023-05-27T00:09:08;21.40;47.70
48043;DHT22;33988;47.992;8.820;2023-05-27T00:11:36;21.30;47.60
48043;DHT22;33988;47.992;8.820;2023-05-27T00:14:03;21.30;47.60
48043;DHT22;33988;47.992;8.820;2023-05-27T00:16:30;21.30;47.70
48043;DHT22;33988;47.992;8.820;2023-05-27T00:18:58;21.30;47.70
48043;DHT22;33988;47.992;8.820;2023-05-27T00:21:25;21.20;47.80
48043;DHT22;33988;47.992;8.820;2023-05-27T00:23:52;21.20;47.70
48043;DHT22;33988;47.992;8.820;2023-05-27T00:26:19;21.20;47.70
48043;DHT22;33988;47.992;8.820;2023-05-27T00:28:49;21.20;47.70
48043;DHT22;33988;47.992;8.820;2023-05-27T00:31:16;21.20;47.70
48043;DHT22;33988;47.992;8.820;2023-05-27T00:33:43;21.20;47.70
48043;DHT22;33988;47.992;8.820;2023-05-27T00:36:12;21.20;47.70
48043;DHT22;33988;47.992;8.820;2023-05-27T00:38:44;21.20;47.60
48043;DHT22;33988;47.992;8.820;2023-05-27T00:41:12;21.20;47.60
48043;DHT22;33988;47.992;8.820;2023-05-27T00:43:41;21.20;47.60
48043;DHT22;33988;47.992;8.820;2023-05-27T00:46:10;21.20;47.60
48043;DHT22;33988;47.992;8.820;2023-05-27T00:48:40;20.90;47.60
48043;DHT22;33988;47.992;8.820;2023-05-27T00:51:12;21.10;47.50
48043;DHT22;33988;47.992;8.820;2023-05-27T00:53:40;21.10;47.40
48043;DHT22;33988;47.992;8.820;2023-05-27T00:56:10;21.10;47.40
48043;DHT22;33988;47.992;8.820;2023-05-27T00:58:37;21.10;47.40
48043;DHT22;33988;47.992;8.820;2023-05-27T01:01:05;21.10;47.40
48043;DHT22;33988;47.992;8.820;2023-05-27T01:03:32;21.00;47.40
48043;DHT22;33988;47.992;8.820;2023-05-27T01:06:14;20.90;47.40
48043;DHT22;33988;47.992;8.820;2023-05-27T01:15:06;20.80;47.50
48043;DHT22;33988;47.992;8.820;2023-05-27T01:17:37;20.70;47.40
48043;DHT22;33988;47.992;8.820;2023-05-27T01:20:10;20.70;47.50
48043;DHT22;33988;47.992;8.820;2023-05-27T01:22:39;20.70;47.50
48043;DHT22;33988;47.992;8.820;2023-05-27T01:25:09;20.70;47.60
48043;DHT22;33988;47.992;8.820;2023-05-27T01:27:36;20.70;48.30
48043;DHT22;33988;47.992;8.820;2023-05-27T01:30:07;20.60;47.60
48043;DHT22;33988;47.992;8.820;2023-05-27T01:32:51;20.50;47.60
48043;DHT22;33988;47.992;8.820;2023-05-27T01:35:27;20.50;47.70
48043;DHT22;33988;47.992;8.820;2023-05-27T01:38:03;20.50;47.70
48043;DHT22;33988;47.992;8.820;2023-05-27T01:40:38;20.50;47.70
48043;DHT22;33988;47.992;8.820;2023-05-27T01:43:09;20.40;47.70
48043;DHT22;33988;47.992;8.820;2023-05-27T01:45:38;20.40;47.70
48043;DHT22;33988;47.992;8.820;2023-05-27T01:48:08;20.40;47.80
48043;DHT22;33988;47.992;8.820;2023-05-27T01:50:39;20.40;47.80
48043;DHT22;33988;47.992;8.820;2023-05-27T01:53:06;20.30;47.90
48043;DHT22;33988;47.992;8.820;2023-05-27T01:55:33;20.30;47.90
48043;DHT22;33988;47.992;8.820;2023-05-27T01:58:00;20.30;47.90
48043;DHT22;33988;47.992;8.820;2023-05-27T02:00:27;20.30;47.90
48043;DHT22;33988;47.992;8.820;2023-05-27T02:02:56;20.30;48.00
48043;DHT22;33988;47.992;8.820;2023-05-27T02:05:23;20.30;48.00
48043;DHT22;33988;47.992;8.820;2023-05-27T02:07:50;20.30;48.00
48043;DHT22;33988;47.992;8.820;2023-05-27T02:10:19;20.30;48.00
48043;DHT22;33988;47.992;8.820;2023-05-27T02:12:46;20.20;48.00
48043;DHT22;33988;47.992;8.820;2023-05-27T02:15:16;20.20;48.00
48043;DHT22;33988;47.992;8.820;2023-05-27T02:17:43;20.20;48.00
48043;DHT22;33988;47.992;8.820;2023-05-27T02:20:17;20.20;48.60
48043;DHT22;33988;47.992;8.820;2023-05-27T02:22:47;20.20;48.00
48043;DHT22;33988;47.992;8.820;2023-05-27T02:25:16;20.20;48.70
48043;DHT22;33988;47.992;8.820;2023-05-27T02:27:43;20.10;48.00
48043;DHT22;33988;47.992;8.820;2023-05-27T02:30:14;20.10;48.00
48043;DHT22;33988;47.992;8.820;2023-05-27T02:32:41;20.10;48.00
48043;DHT22;33988;47.992;8.820;2023-05-27T02:35:13;20.10;48.00
48043;DHT22;33988;47.992;8.820;2023-05-27T02:37:43;20.10;48.00
48043;DHT22;33988;47.992;8.820;2023-05-27T02:40:10;20.10;48.00
48043;DHT22;33988;47.992;8.820;2023-05-27T02:42:37;20.10;48.00
48043;DHT22;33988;47.992;8.820;2023-05-27T02:45:05;20.00;48.00
48043;DHT22;33988;47.992;8.820;2023-05-27T02:47:32;20.00;48.00
48043;DHT22;33988;47.992;8.820;2023-05-27T02:50:02;20.00;48.00
48043;DHT22;33988;47.992;8.820;2023-05-27T02:52:29;19.90;48.00
48043;DHT22;33988;47.992;8.820;2023-05-27T02:54:58;19.90;48.00
48043;DHT22;33988;47.992;8.820;2023-05-27T02:57:25;19.90;48.00
48043;DHT22;33988;47.992;8.820;2023-05-27T02:59:52;19.80;48.10
48043;DHT22;33988;47.992;8.820;2023-05-27T03:02:19;19.80;48.10
48043;DHT22;33988;47.992;8.820;2023-05-27T03:04:46;19.80;48.20
48043;DHT22;33988;47.992;8.820;2023-05-27T03:07:15;19.70;48.20
48043;DHT22;33988;47.992;8.820;2023-05-27T03:09:45;19.70;48.30
48043;DHT22;33988;47.992;8.820;2023-05-27T03:12:12;19.70;49.00
48043;DHT22;33988;47.992;8.820;2023-05-27T03:14:38;19.70;48.30
48043;DHT22;33988;47.992;8.820;2023-05-27T03:17:05;19.60;48.30
48043;DHT22;33988;47.992;8.820;2023-05-27T03:19:32;19.60;48.30
48043;DHT22;33988;47.992;8.820;2023-05-27T03:22:02;19.60;48.30
48043;DHT22;33988;47.992;8.820;2023-05-27T03:24:29;19.50;48.20
48043;DHT22;33988;47.992;8.820;2023-05-27T03:26:58;19.50;48.30
48043;DHT22;33988;47.992;8.820;2023-05-27T03:29:25;19.50;48.40
48043;DHT22;33988;47.992;8.820;2023-05-27T03:31:52;19.50;48.40
48043;DHT22;33988;47.992;8.820;2023-05-27T03:34:19;19.50;48.50
48043;DHT22;33988;47.992;8.820;2023-05-27T03:36:46;19.50;48.50
48043;DHT22;33988;47.992;8.820;2023-05-27T03:39:17;19.40;48.40
48043;DHT22;33988;47.992;8.820;2023-05-27T03:41:44;19.40;48.50
48043;DHT22;33988;47.992;8.820;2023-05-27T03:44:11;19.30;48.50
48043;DHT22;33988;47.992;8.820;2023-05-27T03:46:38;19.30;48.60
48043;DHT22;33988;47.992;8.820;2023-05-27T03:49:08;19.30;48.60
48043;DHT22;33988;47.992;8.820;2023-05-27T03:51:35;19.30;48.60
48043;DHT22;33988;47.992;8.820;2023-05-27T03:54:06;19.30;48.60
48043;DHT22;33988;47.992;8.820;2023-05-27T03:56:33;19.30;48.70
48043;DHT22;33988;47.992;8.820;2023-05-27T03:59:03;19.30;48.70
48043;DHT22;33988;47.992;8.820;2023-05-27T04:01:30;19.20;48.70
48043;DHT22;33988;47.992;8.820;2023-05-27T04:04:00;19.20;48.70
48043;DHT22;33988;47.992;8.820;2023-05-27T04:06:27;19.20;48.80
48043;DHT22;33988;47.992;8.820;2023-05-27T04:08:54;19.20;48.80
48043;DHT22;33988;47.992;8.820;2023-05-27T04:11:26;19.20;48.80
48043;DHT22;33988;47.992;8.820;2023-05-27T04:13:54;19.20;48.90
48043;DHT22;33988;47.992;8.820;2023-05-27T04:16:21;19.20;48.90
48043;DHT22;33988;47.992;8.820;2023-05-27T04:18:52;19.20;49.00
48043;DHT22;33988;47.992;8.820;2023-05-27T04:21:19;19.20;49.10
48043;DHT22;33988;47.992;8.820;2023-05-27T04:23:45;19.20;49.10
48043;DHT22;33988;47.992;8.820;2023-05-27T04:26:12;19.20;49.10
48043;DHT22;33988;47.992;8.820;2023-05-27T04:28:42;19.20;49.20
48043;DHT22;33988;47.992;8.820;2023-05-27T04:31:14;19.20;49.20
48043;DHT22;33988;47.992;8.820;2023-05-27T04:33:44;19.20;49.20
48043;DHT22;33988;47.992;8.820;2023-05-27T04:36:11;19.20;49.30
48043;DHT22;33988;47.992;8.820;2023-05-27T04:38:38;19.20;49.40
48043;DHT22;33988;47.992;8.820;2023-05-27T04:41:11;19.30;49.50
48043;DHT22;33988;47.992;8.820;2023-05-27T04:43:38;19.30;49.50
48043;DHT22;33988;47.992;8.820;2023-05-27T04:46:08;19.30;49.50
48043;DHT22;33988;47.992;8.820;2023-05-27T04:48:39;19.30;49.40
48043;DHT22;33988;47.992;8.820;2023-05-27T04:51:06;19.30;49.40
48043;DHT22;33988;47.992;8.820;2023-05-27T04:53:33;19.40;49.30
48043;DHT22;33988;47.992;8.820;2023-05-27T04:56:01;19.40;49.20
48043;DHT22;33988;47.992;8.820;2023-05-27T04:58:30;19.50;49.20
48043;DHT22;33988;47.992;8.820;2023-05-27T05:00:58;19.50;49.20
48043;DHT22;33988;47.992;8.820;2023-05-27T05:03:28;19.60;49.10
48043;DHT22;33988;47.992;8.820;2023-05-27T05:06:06;19.60;49.00
48043;DHT22;33988;47.992;8.820;2023-05-27T05:08:33;19.70;49.00
48043;DHT22;33988;47.992;8.820;2023-05-27T05:11:00;19.70;48.90
48043;DHT22;33988;47.992;8.820;2023-05-27T05:13:27;19.80;48.90
48043;DHT22;33988;47.992;8.820;2023-05-27T05:15:57;19.80;48.90
48043;DHT22;33988;47.992;8.820;2023-05-27T05:18:24;19.90;48.90
48043;DHT22;33988;47.992;8.820;2023-05-27T05:20:52;19.90;48.80
48043;DHT22;33988;47.992;8.820;2023-05-27T05:23:20;20.00;48.70
48043;DHT22;33988;47.992;8.820;2023-05-27T05:25:47;20.00;48.60
48043;DHT22;33988;47.992;8.820;2023-05-27T05:28:21;20.10;48.60
48043;DHT22;33988;47.992;8.820;2023-05-27T05:30:48;20.10;48.60
48043;DHT22;33988;47.992;8.820;2023-05-27T05:33:15;20.20;48.60
48043;DHT22;33988;47.992;8.820;2023-05-27T05:35:42;20.30;48.60
48043;DHT22;33988;47.992;8.820;2023-05-27T05:38:09;20.30;48.60
48043;DHT22;33988;47.992;8.820;2023-05-27T05:40:38;20.40;48.50
48043;DHT22;33988;47.992;8.820;2023-05-27T05:43:05;20.40;48.30
48043;DHT22;33988;47.992;8.820;2023-05-27T05:45:34;20.50;48.30
48043;DHT22;33988;47.992;8.820;2023-05-27T05:48:03;20.50;48.20
48043;DHT22;33988;47.992;8.820;2023-05-27T05:50:31;20.60;48.20
48043;DHT22;33988;47.992;8.820;2023-05-27T05:52:59;20.70;48.20
48043;DHT22;33988;47.992;8.820;2023-05-27T05:55:29;20.70;48.20
48043;DHT22;33988;47.992;8.820;2023-05-27T05:57:56;20.80;48.20
48043;DHT22;33988;47.992;8.820;2023-05-27T06:00:27;20.80;48.10
48043;DHT22;33988;47.992;8.820;2023-05-27T06:02:54;20.90;48.20
48043;DHT22;33988;47.992;8.820;2023-05-27T06:05:21;21.00;48.60
48043;DHT22;33988;47.992;8.820;2023-05-27T06:07:49;21.00;48.00
48043;DHT22;33988;47.992;8.820;2023-05-27T06:10:18;21.10;48.00
48043;DHT22;33988;47.992;8.820;2023-05-27T06:12:46;21.20;48.00
48043;DHT22;33988;47.992;8.820;2023-05-27T06:15:15;21.20;47.90
48043;DHT22;33988;47.992;8.820;2023-05-27T06:17:43;21.30;48.30
48043;DHT22;33988;47.992;8.820;2023-05-27T06:20:14;21.40;49.10
48043;DHT22;33988;47.992;8.820;2023-05-27T06:22:41;21.50;49.60
48043;DHT22;33988;47.992;8.820;2023-05-27T06:25:10;21.60;49.70
48043;DHT22;33988;47.992;8.820;2023-05-27T06:27:37;21.70;49.70
48043;DHT22;33988;47.992;8.820;2023-05-27T06:30:05;21.70;49.50
48043;DHT22;33988;47.992;8.820;2023-05-27T06:32:32;21.90;49.40
48043;DHT22;33988;47.992;8.820;2023-05-27T06:34:59;22.00;49.60
48043;DHT22;33988;47.992;8.820;2023-05-27T06:37:26;22.00;49.30
48043;DHT22;33988;47.992;8.820;2023-05-27T06:39:53;22.10;49.00
48043;DHT22;33988;47.992;8.820;2023-05-27T06:42:21;22.20;49.10
48043;DHT22;33988;47.992;8.820;2023-05-27T06:44:49;22.30;49.30
48043;DHT22;33988;47.992;8.820;2023-05-27T06:47:16;22.40;49.10
48043;DHT22;33988;47.992;8.820;2023-05-27T06:49:43;22.50;48.90
48043;DHT22;33988;47.992;8.820;2023-05-27T06:52:12;22.60;48.70
48043;DHT22;33988;47.992;8.820;2023-05-27T06:54:40;22.80;49.00
48043;DHT22;33988;47.992;8.820;2023-05-27T06:57:07;22.90;49.10
48043;DHT22;33988;47.992;8.820;2023-05-27T06:59:34;23.20;49.20
48043;DHT22;33988;47.992;8.820;2023-05-27T07:02:01;23.50;49.40
48043;DHT22;33988;47.992;8.820;2023-05-27T07:04:31;23.90;49.40
48043;DHT22;33988;47.992;8.820;2023-05-27T07:07:00;24.40;48.90
48043;DHT22;33988;47.992;8.820;2023-05-27T07:09:27;24.80;48.00
48043;DHT22;33988;47.992;8.820;2023-05-27T07:11:54;25.30;47.50
48043;DHT22;33988;47.992;8.820;2023-05-27T07:14:21;25.90;46.90
48043;DHT22;33988;47.992;8.820;2023-05-27T07:16:51;26.40;46.20
48043;DHT22;33988;47.992;8.820;2023-05-27T07:19:21;26.90;45.50
48043;DHT22;33988;47.992;8.820;2023-05-27T07:21:49;27.40;44.30
48043;DHT22;33988;47.992;8.820;2023-05-27T07:24:20;27.90;43.80
48043;DHT22;33988;47.992;8.820;2023-05-27T07:26:47;28.30;43.10
48043;DHT22;33988;47.992;8.820;2023-05-27T07:29:14;28.60;42.20
48043;DHT22;33988;47.992;8.820;2023-05-27T07:31:41;29.00;41.30
48043;DHT22;33988;47.992;8.820;2023-05-27T07:34:08;29.20;40.40
48043;DHT22;33988;47.992;8.820;2023-05-27T07:36:35;29.30;39.70
48043;DHT22;33988;47.992;8.820;2023-05-27T07:39:02;29.30;39.10
48043;DHT22;33988;47.992;8.820;2023-05-27T07:41:29;29.30;38.60
48043;DHT22;33988;47.992;8.820;2023-05-27T07:43:59;29.30;38.40
48043;DHT22;33988;47.992;8.820;2023-05-27T07:46:26;29.20;38.10
48043;DHT22;33988;47.992;8.820;2023-05-27T07:48:53;29.00;38.10
48043;DHT22;33988;47.992;8.820;2023-05-27T07:51:22;28.90;38.10
48043;DHT22;33988;47.992;8.820;2023-05-27T07:53:56;28.80;38.00
48043;DHT22;33988;47.992;8.820;2023-05-27T07:56:23;28.70;38.10
48043;DHT22;33988;47.992;8.820;2023-05-27T07:58:52;28.50;38.20
48043;DHT22;33988;47.992;8.820;2023-05-27T08:01:19;28.40;38.30
48043;DHT22;33988;47.992;8.820;2023-05-27T08:03:46;28.30;38.30
48043;DHT22;33988;47.992;8.820;2023-05-27T08:06:13;28.20;38.30
48043;DHT22;33988;47.992;8.820;2023-05-27T08:08:43;28.10;38.40
48043;DHT22;33988;47.992;8.820;2023-05-27T08:11:10;28.10;38.40
48043;DHT22;33988;47.992;8.820;2023-05-27T08:13:38;28.00;38.50
48043;DHT22;33988;47.992;8.820;2023-05-27T08:16:05;27.90;38.50
48043;DHT22;33988;47.992;8.820;2023-05-27T08:18:32;27.90;38.60
48043;DHT22;33988;47.992;8.820;2023-05-27T08:20:59;27.80;38.70
48043;DHT22;33988;47.992;8.820;2023-05-27T08:23:26;27.80;38.70
48043;DHT22;33988;47.992;8.820;2023-05-27T08:25:53;27.70;38.70
48043;DHT22;33988;47.992;8.820;2023-05-27T08:28:20;27.70;38.70
48043;DHT22;33988;47.992;8.820;2023-05-27T08:30:47;27.70;39.10
48043;DHT22;33988;47.992;8.820;2023-05-27T08:33:14;27.70;39.00
48043;DHT22;33988;47.992;8.820;2023-05-27T08:35:41;27.70;39.00
48043;DHT22;33988;47.992;8.820;2023-05-27T08:38:09;27.70;38.90
48043;DHT22;33988;47.992;8.820;2023-05-27T08:40:36;27.70;39.10
48043;DHT22;33988;47.992;8.820;2023-05-27T08:43:07;27.70;39.20
48043;DHT22;33988;47.992;8.820;2023-05-27T08:45:34;27.60;39.30
48043;DHT22;33988;47.992;8.820;2023-05-27T08:48:01;27.60;39.10
48043;DHT22;33988;47.992;8.820;2023-05-27T08:50:29;27.60;39.00
48043;DHT22;33988;47.992;8.820;2023-05-27T08:52:58;27.60;38.90
48043;DHT22;33988;47.992;8.820;2023-05-27T08:55:29;27.60;38.90
48043;DHT22;33988;47.992;8.820;2023-05-27T08:58:01;27.60;39.10
48043;DHT22;33988;47.992;8.820;2023-05-27T09:00:28;27.60;39.00
48043;DHT22;33988;47.992;8.820;2023-05-27T09:02:58;27.60;39.20
48043;DHT22;33988;47.992;8.820;2023-05-27T09:05:26;27.60;39.20
48043;DHT22;33988;47.992;8.820;2023-05-27T09:07:55;27.60;39.10
48043;DHT22;33988;47.992;8.820;2023-05-27T09:10:22;27.60;39.10
48043;DHT22;33988;47.992;8.820;2023-05-27T09:12:50;27.70;38.80
48043;DHT22;33988;47.992;8.820;2023-05-27T09:15:23;27.70;38.40
48043;DHT22;33988;47.992;8.820;2023-05-27T09:17:53;27.70;38.60
48043;DHT22;33988;47.992;8.820;2023-05-27T09:20:31;27.70;38.40
48043;DHT22;33988;47.992;8.820;2023-05-27T09:23:03;27.70;38.30
48043;DHT22;33988;47.992;8.820;2023-05-27T09:25:31;27.70;38.40
48043;DHT22;33988;47.992;8.820;2023-05-27T09:27:58;27.70;38.00
48043;DHT22;33988;47.992;8.820;2023-05-27T09:30:25;27.70;38.00
48043;DHT22;33988;47.992;8.820;2023-05-27T09:33:01;27.70;37.60
48043;DHT22;33988;47.992;8.820;2023-05-27T09:35:37;27.70;37.40
48043;DHT22;33988;47.992;8.820;2023-05-27T09:38:07;27.70;37.70
48043;DHT22;33988;47.992;8.820;2023-05-27T09:40:38;27.80;37.80
48043;DHT22;33988;47.992;8.820;2023-05-27T09:43:05;27.80;37.70
48043;DHT22;33988;47.992;8.820;2023-05-27T09:45:34;27.80;37.80
48043;DHT22;33988;47.992;8.820;2023-05-27T09:48:03;27.80;37.60
48043;DHT22;33988;47.992;8.820;2023-05-27T09:50:30;27.80;37.40
48043;DHT22;33988;47.992;8.820;2023-05-27T09:53:00;27.80;37.10
48043;DHT22;33988;47.992;8.820;2023-05-27T09:55:39;27.80;37.10
48043;DHT22;33988;47.992;8.820;2023-05-27T09:58:11;27.90;37.00
48043;DHT22;33988;47.992;8.820;2023-05-27T10:00:42;27.90;37.10
48043;DHT22;33988;47.992;8.820;2023-05-27T10:03:16;27.90;36.80
48043;DHT22;33988;47.992;8.820;2023-05-27T10:05:44;27.90;37.00
48043;DHT22;33988;47.992;8.820;2023-05-27T10:08:12;27.90;36.80
48043;DHT22;33988;47.992;8.820;2023-05-27T10:10:52;27.90;36.80
48043;DHT22;33988;47.992;8.820;2023-05-27T10:13:23;27.90;36.70
48043;DHT22;33988;47.992;8.820;2023-05-27T10:15:59;27.90;36.50
48043;DHT22;33988;47.992;8.820;2023-05-27T10:18:30;28.00;36.50
48043;DHT22;33988;47.992;8.820;2023-05-27T10:20:58;28.00;36.40
48043;DHT22;33988;47.992;8.820;2023-05-27T10:23:30;28.00;36.30
48043;DHT22;33988;47.992;8.820;2023-05-27T10:26:06;28.00;36.20
48043;DHT22;33988;47.992;8.820;2023-05-27T10:28:39;28.00;35.80
48043;DHT22;33988;47.992;8.820;2023-05-27T10:31:17;28.00;36.00
48043;DHT22;33988;47.992;8.820;2023-05-27T10:33:49;28.00;35.70
48043;DHT22;33988;47.992;8.820;2023-05-27T10:36:23;28.00;35.80
48043;DHT22;33988;47.992;8.820;2023-05-27T10:41:23;28.00;36.00
48043;DHT22;33988;47.992;8.820;2023-05-27T10:43:58;28.00;36.00
48043;DHT22;33988;47.992;8.820;2023-05-27T10:46:38;28.00;36.00
48043;DHT22;33988;47.992;8.820;2023-05-27T10:49:13;28.00;35.30
48043;DHT22;33988;47.992;8.820;2023-05-27T10:51:48;28.00;35.30
48043;DHT22;33988;47.992;8.820;2023-05-27T10:54:15;28.10;35.30
48043;DHT22;33988;47.992;8.820;2023-05-27T10:56:56;28.10;35.30
48043;DHT22;33988;47.992;8.820;2023-05-27T10:59:27;28.10;35.40
48043;DHT22;33988;47.992;8.820;2023-05-27T11:02:02;28.10;35.20
48043;DHT22;33988;47.992;8.820;2023-05-27T11:04:36;28.20;35.40
48043;DHT22;33988;47.992;8.820;2023-05-27T11:07:04;28.20;35.50
48043;DHT22;33988;47.992;8.820;2023-05-27T11:12:20;28.20;35.20
48043;DHT22;33988;47.992;8.820;2023-05-27T11:14:55;28.20;35.50
48043;DHT22;33988;47.992;8.820;2023-05-27T11:17:29;28.20;35.30
48043;DHT22;33988;47.992;8.820;2023-05-27T11:19:57;28.30;35.50
48043;DHT22;33988;47.992;8.820;2023-05-27T11:22:25;28.30;35.50
48043;DHT22;33988;47.992;8.820;2023-05-27T11:24:58;28.30;35.60
48043;DHT22;33988;47.992;8.820;2023-05-27T11:27:33;28.30;35.30
48043;DHT22;33988;47.992;8.820;2023-05-27T11:30:11;28.30;35.30
48043;DHT22;33988;47.992;8.820;2023-05-27T11:32:41;28.40;35.00
48043;DHT22;33988;47.992;8.820;2023-05-27T11:35:15;28.40;34.90
48043;DHT22;33988;47.992;8.820;2023-05-27T11:37:49;28.40;35.00
48043;DHT22;33988;47.992;8.820;2023-05-27T11:40:18;28.40;34.90
48043;DHT22;33988;47.992;8.820;2023-05-27T11:42:48;28.40;34.90
48043;DHT22;33988;47.992;8.820;2023-05-27T11:45:21;28.40;35.00
48043;DHT22;33988;47.992;8.820;2023-05-27T11:47:48;28.40;34.60
48043;DHT22;33988;47.992;8.820;2023-05-27T11:50:21;28.40;34.60
48043;DHT22;33988;47.992;8.820;2023-05-27T11:52:56;28.40;34.80
48043;DHT22;33988;47.992;8.820;2023-05-27T11:55:25;28.40;34.50
48043;DHT22;33988;47.992;8.820;2023-05-27T11:57:52;28.40;34.60
48043;DHT22;33988;47.992;8.820;2023-05-27T12:00:21;28.40;34.50
48043;DHT22;33988;47.992;8.820;2023-05-27T12:02:48;28.40;34.50
48043;DHT22;33988;47.992;8.820;2023-05-27T12:05:15;28.40;34.60
48043;DHT22;33988;47.992;8.820;2023-05-27T12:07:59;28.40;34.50
48043;DHT22;33988;47.992;8.820;2023-05-27T12:10:28;28.40;34.60
48043;DHT22;33988;47.992;8.820;2023-05-27T12:13:04;28.40;34.70
48043;DHT22;33988;47.992;8.820;2023-05-27T12:15:37;28.40;34.90
48043;DHT22;33988;47.992;8.820;2023-05-27T12:18:05;28.40;34.50
48043;DHT22;33988;47.992;8.820;2023-05-27T12:20:34;28.40;34.50
48043;DHT22;33988;47.992;8.820;2023-05-27T12:23:01;28.40;34.30
48043;DHT22;33988;47.992;8.820;2023-05-27T12:25:31;28.40;34.70
48043;DHT22;33988;47.992;8.820;2023-05-27T12:27:58;28.50;34.80
48043;DHT22;33988;47.992;8.820;2023-05-27T12:30:25;28.50;34.70
48043;DHT22;33988;47.992;8.820;2023-05-27T12:32:52;28.50;34.70
48043;DHT22;33988;47.992;8.820;2023-05-27T12:35:21;28.50;34.70
48043;DHT22;33988;47.992;8.820;2023-05-27T12:37:48;28.50;34.70
48043;DHT22;33988;47.992;8.820;2023-05-27T12:40:18;28.50;34.70
48043;DHT22;33988;47.992;8.820;2023-05-27T12:42:45;28.50;34.60
48043;DHT22;33988;47.992;8.820;2023-05-27T12:45:12;28.50;34.40
48043;DHT22;33988;47.992;8.820;2023-05-27T12:47:39;28.50;34.20
48043;DHT22;33988;47.992;8.820;2023-05-27T12:50:09;28.50;34.40
48043;DHT22;33988;47.992;8.820;2023-05-27T12:52:36;28.50;34.60
48043;DHT22;33988;47.992;8.820;2023-05-27T12:55:04;28.50;34.50
48043;DHT22;33988;47.992;8.820;2023-05-27T12:57:31;28.50;34.10
48043;DHT22;33988;47.992;8.820;2023-05-27T13:00:00;28.50;33.80
48043;DHT22;33988;47.992;8.820;2023-05-27T13:02:28;28.50;33.60
48043;DHT22;33988;47.992;8.820;2023-05-27T13:04:55;28.50;33.30
48043;DHT22;33988;47.992;8.820;2023-05-27T13:07:24;28.50;33.60
48043;DHT22;33988;47.992;8.820;2023-05-27T13:09:53;28.50;33.80
48043;DHT22;33988;47.992;8.820;2023-05-27T13:12:23;28.50;33.80
48043;DHT22;33988;47.992;8.820;2023-05-27T13:14:51;28.50;34.00
48043;DHT22;33988;47.992;8.820;2023-05-27T13:17:17;28.50;34.00
48043;DHT22;33988;47.992;8.820;2023-05-27T13:19:44;28.50;33.80
48043;DHT22;33988;47.992;8.820;2023-05-27T13:22:11;28.40;33.60
48043;DHT22;33988;47.992;8.820;2023-05-27T13:24:41;28.50;33.80
48043;DHT22;33988;47.992;8.820;2023-05-27T13:27:11;28.50;33.80
48043;DHT22;33988;47.992;8.820;2023-05-27T13:29:39;28.40;33.60
48043;DHT22;33988;47.992;8.820;2023-05-27T13:32:07;28.40;33.40
48043;DHT22;33988;47.992;8.820;2023-05-27T13:34:37;28.40;33.70
48043;DHT22;33988;47.992;8.820;2023-05-27T13:37:04;28.40;33.90
48043;DHT22;33988;47.992;8.820;2023-05-27T13:39:31;28.40;33.90
48043;DHT22;33988;47.992;8.820;2023-05-27T13:41:59;28.40;34.10
48043;DHT22;33988;47.992;8.820;2023-05-27T13:44:26;28.30;34.10
48043;DHT22;33988;47.992;8.820;2023-05-27T13:46:53;28.30;34.20
48043;DHT22;33988;47.992;8.820;2023-05-27T13:49:20;28.30;33.80
48043;DHT22;33988;47.992;8.820;2023-05-27T13:51:50;28.30;33.60
48043;DHT22;33988;47.992;8.820;2023-05-27T13:54:17;28.30;33.40
48043;DHT22;33988;47.992;8.820;2023-05-27T13:56:44;28.30;33.20
48043;DHT22;33988;47.992;8.820;2023-05-27T13:59:11;28.30;33.50
48043;DHT22;33988;47.992;8.820;2023-05-27T14:01:39;28.30;33.60
48043;DHT22;33988;47.992;8.820;2023-05-27T14:04:14;28.30;33.70
48043;DHT22;33988;47.992;8.820;2023-05-27T14:06:44;28.20;34.60
48043;DHT22;33988;47.992;8.820;2023-05-27T14:09:11;28.20;34.10
48043;DHT22;33988;47.992;8.820;2023-05-27T14:11:40;28.20;34.30
48043;DHT22;33988;47.992;8.820;2023-05-27T14:14:07;28.20;33.90
48043;DHT22;33988;47.992;8.820;2023-05-27T14:16:34;28.20;33.90
48043;DHT22;33988;47.992;8.820;2023-05-27T14:19:01;28.20;33.60
48043;DHT22;33988;47.992;8.820;2023-05-27T14:21:29;28.20;33.60
48043;DHT22;33988;47.992;8.820;2023-05-27T14:23:56;28.20;33.90
48043;DHT22;33988;47.992;8.820;2023-05-27T14:26:23;28.20;34.00
48043;DHT22;33988;47.992;8.820;2023-05-27T14:28:50;28.20;34.00
48043;DHT22;33988;47.992;8.820;2023-05-27T14:31:17;28.20;34.00
48043;DHT22;33988;47.992;8.820;2023-05-27T14:33:44;28.10;33.90
48043;DHT22;33988;47.992;8.820;2023-05-27T14:36:11;28.10;33.90
48043;DHT22;33988;47.992;8.820;2023-05-27T14:38:41;28.10;33.70
48043;DHT22;33988;47.992;8.820;2023-05-27T14:41:08;28.10;33.60
48043;DHT22;33988;47.992;8.820;2023-05-27T14:43:35;28.10;33.70
48043;DHT22;33988;47.992;8.820;2023-05-27T14:46:02;28.10;34.00
48043;DHT22;33988;47.992;8.820;2023-05-27T14:48:31;28.10;33.90
48043;DHT22;33988;47.992;8.820;2023-05-27T14:50:58;28.00;34.00
48043;DHT22;33988;47.992;8.820;2023-05-27T14:53:24;28.00;34.00
48043;DHT22;33988;47.992;8.820;2023-05-27T14:55:51;28.00;34.00
48043;DHT22;33988;47.992;8.820;2023-05-27T14:58:19;28.00;34.10
48043;DHT22;33988;47.992;8.820;2023-05-27T15:00:46;28.00;34.00
48043;DHT22;33988;47.992;8.820;2023-05-27T15:03:13;27.90;34.10
48043;DHT22;33988;47.992;8.820;2023-05-27T15:05:40;27.90;34.10
48043;DHT22;33988;47.992;8.820;2023-05-27T15:08:09;27.90;33.90
48043;DHT22;33988;47.992;8.820;2023-05-27T15:10:45;27.90;33.80
48043;DHT22;33988;47.992;8.820;2023-05-27T15:13:12;27.80;33.60
48043;DHT22;33988;47.992;8.820;2023-05-27T15:15:42;27.70;33.70
48043;DHT22;33988;47.992;8.820;2023-05-27T15:18:10;27.70;33.90
48043;DHT22;33988;47.992;8.820;2023-05-27T15:20:42;27.70;34.00
48043;DHT22;33988;47.992;8.820;2023-05-27T15:23:09;27.60;34.00
48043;DHT22;33988;47.992;8.820;2023-05-27T15:25:39;27.60;34.10
48043;DHT22;33988;47.992;8.820;2023-05-27T15:28:08;27.60;34.10
48043;DHT22;33988;47.992;8.820;2023-05-27T15:30:38;27.60;34.20
48043;DHT22;33988;47.992;8.820;2023-05-27T15:33:05;27.50;34.20
48043;DHT22;33988;47.992;8.820;2023-05-27T15:35:32;27.50;34.20
48043;DHT22;33988;47.992;8.820;2023-05-27T15:37:59;27.50;34.30
48043;DHT22;33988;47.992;8.820;2023-05-27T15:40:26;27.50;34.30
48043;DHT22;33988;47.992;8.820;2023-05-27T15:42:58;27.40;34.20
48043;DHT22;33988;47.992;8.820;2023-05-27T15:45:26;27.40;34.00
48043;DHT22;33988;47.992;8.820;2023-05-27T15:47:54;27.40;34.20
48043;DHT22;33988;47.992;8.820;2023-05-27T15:50:24;27.30;33.90
48043;DHT22;33988;47.992;8.820;2023-05-27T15:52:51;27.30;33.80